createdAt,value
2018-09-25T00:02:52.823Z,81.92
2018-09-25T00:06:02.151Z,81.64
2018-09-25T00:09:14.315Z,81.69
2018-09-25T00:12:23.654Z,81.73
2018-09-25T00:15:32.842Z,82.07
2018-09-25T00:18:42.372Z,81.36
2018-09-25T00:21:51.589Z,80.85
2018-09-25T00:25:01.130Z,80.45
2018-09-25T00:28:10.935Z,80.65
2018-09-25T00:31:20.236Z,81.50
2018-09-25T00:34:29.463Z,81.45
2018-09-25T00:37:38.679Z,82.07
2018-09-25T00:40:48.041Z,81.70
2018-09-25T00:43:57.305Z,81.08
2018-09-25T00:47:06.934Z,81.51
2018-09-25T00:50:16.452Z,81.71
2018-09-25T00:53:25.810Z,81.73
2018-09-25T00:56:35.066Z,81.99
2018-09-25T00:59:44.786Z,82.96
2018-09-25T01:02:54.194Z,83.35
2018-09-25T01:06:03.520Z,83.06
2018-09-25T01:09:13.802Z,82.54
2018-09-25T01:12:22.963Z,82.46
2018-09-25T01:15:32.622Z,82.24
2018-09-25T01:18:41.986Z,82.66
2018-09-25T01:21:51.372Z,82.26
2018-09-25T01:25:00.730Z,82.29
2018-09-25T01:28:10.322Z,83.03
2018-09-25T01:31:19.730Z,82.66
2018-09-25T01:34:28.986Z,83.11
2018-09-25T01:37:38.199Z,82.86
2018-09-25T01:40:47.407Z,83.19
2018-09-25T01:43:56.755Z,83.30
2018-09-25T01:47:06.075Z,82.57
2018-09-25T01:50:15.449Z,82.38
2018-09-25T01:53:24.703Z,82.69
2018-09-25T01:56:33.958Z,82.80
2018-09-25T01:59:43.223Z,82.90
2018-09-25T02:02:52.494Z,82.47
2018-09-25T02:06:01.948Z,82.30
2018-09-25T02:09:11.737Z,82.43
2018-09-25T02:12:21.076Z,82.66
2018-09-25T02:15:30.586Z,83.30
2018-09-25T02:18:39.815Z,83.45
2018-09-25T02:21:49.211Z,83.71
2018-09-25T02:24:58.558Z,83.27
2018-09-25T02:28:07.819Z,83.32
2018-09-25T02:31:17.029Z,83.46
2018-09-25T02:34:26.557Z,83.49
2018-09-25T02:37:35.830Z,83.27
2018-09-25T02:40:44.993Z,83.95
2018-09-25T02:43:54.264Z,83.85
2018-09-25T02:47:03.473Z,83.73
2018-09-25T02:50:12.663Z,84.19
2018-09-25T02:53:21.958Z,83.80
2018-09-25T02:56:31.236Z,83.52
2018-09-25T02:59:40.399Z,82.83
2018-09-25T03:02:49.655Z,83.14
2018-09-25T03:05:59.510Z,83.32
2018-09-25T03:09:08.826Z,83.55
2018-09-25T03:12:18.147Z,83.36
2018-09-25T03:15:27.317Z,83.58
2018-09-25T03:18:36.483Z,84.03
2018-09-25T03:21:45.746Z,84.09
2018-09-25T03:24:54.967Z,84.28
2018-09-25T03:28:04.154Z,85.24
2018-09-25T03:31:13.490Z,84.79
2018-09-25T03:34:22.777Z,85.37
2018-09-25T03:37:32.023Z,85.17
2018-09-25T03:40:41.436Z,85.02
2018-09-25T03:43:51.025Z,85.19
2018-09-25T03:47:00.599Z,85.37
2018-09-25T03:50:10.161Z,85.25
2018-09-25T03:53:19.433Z,85.34
2018-09-25T03:56:28.584Z,85.27
2018-09-25T03:59:37.804Z,85.38
2018-09-25T04:02:47.272Z,85.14
2018-09-25T04:05:56.676Z,85.23
2018-09-25T04:09:06.423Z,84.72
2018-09-25T04:12:15.615Z,85.39
2018-09-25T04:15:25.153Z,86.19
2018-09-25T04:18:34.706Z,85.40
2018-09-25T04:21:44.011Z,86.21
2018-09-25T04:24:53.304Z,86.33
2018-09-25T04:28:02.636Z,86.21
2018-09-25T04:31:12.203Z,86.69
2018-09-25T04:34:21.618Z,86.52
2018-09-25T04:37:31.033Z,86.61
2018-09-25T04:40:40.383Z,86.47
2018-09-25T04:43:50.114Z,86.45
2018-09-25T04:46:59.634Z,85.94
2018-09-25T04:50:08.813Z,86.07
2018-09-25T04:53:18.273Z,85.99
2018-09-25T04:56:27.739Z,86.28
2018-09-25T04:59:36.934Z,86.14
2018-09-25T05:02:46.376Z,85.50
2018-09-25T05:05:55.758Z,85.90
2018-09-25T05:09:05.307Z,85.95
2018-09-25T05:12:14.801Z,85.90
2018-09-25T05:15:24.232Z,85.55
2018-09-25T05:18:33.579Z,85.72
2018-09-25T05:21:42.777Z,85.99
2018-09-25T05:24:52.053Z,86.16
2018-09-25T05:28:01.449Z,85.35
2018-09-25T05:31:11.030Z,86.23
2018-09-25T05:34:20.371Z,85.43
2018-09-25T05:37:29.912Z,85.17
2018-09-25T05:40:39.327Z,84.79
2018-09-25T05:43:48.638Z,84.65
2018-09-25T05:46:58.006Z,84.47
2018-09-25T05:50:07.259Z,85.29
2018-09-25T05:53:16.466Z,85.68
2018-09-25T05:56:25.768Z,86.21
2018-09-25T05:59:35.126Z,86.25
2018-09-25T06:02:44.426Z,86.14
2018-09-25T06:05:53.652Z,86.38
2018-09-25T06:09:03.088Z,86.62
2018-09-25T06:12:12.272Z,86.87
2018-09-25T06:15:21.938Z,87.64
2018-09-25T06:18:31.103Z,87.61
2018-09-25T06:21:40.903Z,87.79
2018-09-25T06:24:50.122Z,88.35
2018-09-25T06:27:59.347Z,87.09
2018-09-25T06:31:08.862Z,87.49
2018-09-25T06:34:18.460Z,86.82
2018-09-25T06:37:27.887Z,87.67
2018-09-25T06:40:37.260Z,87.52
2018-09-25T06:43:46.508Z,87.69
2018-09-25T06:46:55.802Z,88.07
2018-09-25T06:50:05.063Z,88.75
2018-09-25T06:53:14.492Z,87.90
2018-09-25T06:56:23.715Z,87.41
2018-09-25T06:59:33.287Z,87.55
2018-09-25T07:02:42.539Z,87.88
2018-09-25T07:05:51.944Z,86.92
2018-09-25T07:09:01.139Z,87.92
2018-09-25T07:12:10.397Z,87.64
2018-09-25T07:15:19.756Z,87.39
2018-09-25T07:18:29.278Z,86.94
2018-09-25T07:21:38.438Z,86.36
2018-09-25T07:24:47.810Z,87.04
2018-09-25T07:27:57.105Z,86.69
2018-09-25T07:31:06.437Z,87.06
2018-09-25T07:34:15.859Z,86.96
2018-09-25T07:37:25.371Z,86.34
2018-09-25T07:40:34.604Z,85.86
2018-09-25T07:43:43.978Z,86.01
2018-09-25T07:46:53.255Z,86.65
2018-09-25T07:50:02.783Z,85.86
2018-09-25T07:53:12.104Z,85.21
2018-09-25T07:56:21.525Z,86.18
2018-09-25T07:59:31.032Z,85.01
2018-09-25T08:02:40.335Z,85.43
2018-09-25T08:05:49.794Z,85.06
2018-09-25T08:08:59.041Z,84.75
2018-09-25T08:12:08.849Z,84.85
2018-09-25T08:15:18.306Z,84.58
2018-09-25T08:18:28.023Z,84.23
2018-09-25T08:21:37.380Z,83.65
2018-09-25T08:24:46.574Z,84.28
2018-09-25T08:27:56.178Z,84.78
2018-09-25T08:31:05.543Z,84.73
2018-09-25T08:34:15.041Z,83.95
2018-09-25T08:37:24.387Z,84.35
2018-09-25T08:40:33.749Z,83.62
2018-09-25T08:43:42.974Z,82.78
2018-09-25T08:46:52.214Z,82.24
2018-09-25T08:50:01.441Z,82.37
2018-09-25T08:53:10.777Z,81.81
2018-09-25T08:56:20.062Z,81.62
2018-09-25T08:59:29.590Z,81.90
2018-09-25T09:02:38.915Z,81.14
2018-09-25T09:05:48.174Z,81.22
2018-09-25T09:08:57.344Z,80.82
2018-09-25T09:12:06.599Z,80.19
2018-09-25T09:15:16.266Z,79.73
2018-09-25T09:18:25.628Z,79.01
2018-09-25T09:21:34.902Z,79.25
2018-09-25T09:24:44.134Z,77.79
2018-09-25T09:27:53.478Z,79.01
2018-09-25T09:31:02.612Z,77.76
2018-09-25T09:34:12.036Z,76.83
2018-09-25T09:37:21.279Z,76.73
2018-09-25T09:40:30.760Z,78.16
2018-09-25T09:43:40.164Z,76.49
2018-09-25T09:46:49.558Z,76.34
2018-09-25T09:49:58.934Z,76.67
2018-09-25T09:53:08.583Z,77.11
2018-09-25T09:56:17.784Z,77.82
2018-09-25T09:59:27.344Z,76.03
2018-09-25T10:02:36.558Z,77.15
2018-09-25T10:05:45.746Z,76.47
2018-09-25T10:08:55.131Z,76.42
2018-09-25T10:12:04.435Z,76.84
2018-09-25T10:15:13.774Z,76.80
2018-09-25T10:18:23.130Z,76.46
2018-09-25T10:21:32.348Z,72.42
2018-09-25T10:24:41.889Z,74.15
2018-09-25T10:27:51.107Z,75.03
2018-09-25T10:31:00.411Z,75.76
2018-09-25T10:34:09.980Z,74.01
2018-09-25T10:37:19.918Z,75.29
2018-09-25T10:40:29.164Z,74.70
2018-09-25T10:43:38.749Z,73.52
2018-09-25T10:46:48.429Z,73.24
2018-09-25T10:49:57.876Z,73.42
2018-09-25T10:53:07.317Z,72.55
2018-09-25T10:56:16.882Z,71.98
2018-09-25T10:59:26.220Z,72.42
2018-09-25T11:02:35.437Z,72.86
2018-09-25T11:05:44.667Z,72.00
2018-09-25T11:08:53.856Z,73.27
2018-09-25T11:12:03.494Z,74.07
2018-09-25T11:15:12.764Z,72.01
2018-09-25T11:18:22.245Z,71.90
2018-09-25T11:21:31.549Z,70.65
2018-09-25T11:24:40.791Z,71.29
2018-09-25T11:27:50.055Z,72.06
2018-09-25T11:30:59.291Z,70.87
2018-09-25T11:34:08.855Z,72.71
2018-09-25T11:37:18.314Z,73.29
2018-09-25T11:40:27.538Z,71.14
2018-09-25T11:43:36.837Z,72.08
2018-09-25T11:46:46.331Z,69.33
2018-09-25T11:49:55.880Z,69.23
2018-09-25T11:53:05.503Z,69.66
2018-09-25T11:56:14.772Z,69.86
2018-09-25T11:59:24.271Z,69.57
2018-09-25T12:02:33.548Z,69.62
2018-09-25T12:05:43.176Z,71.08
2018-09-25T12:08:52.435Z,69.07
2018-09-25T12:12:01.666Z,69.07
2018-09-25T12:15:10.987Z,71.10
2018-09-25T12:18:20.556Z,70.60
2018-09-25T12:21:29.760Z,69.59
2018-09-25T12:24:39.157Z,68.04
2018-09-25T12:27:48.339Z,69.32
2018-09-25T12:30:57.579Z,69.30
2018-09-25T12:34:06.917Z,70.30
2018-09-25T12:37:16.623Z,69.89
2018-09-25T12:40:26.183Z,70.34
2018-09-25T12:43:35.567Z,70.06
2018-09-25T12:46:44.918Z,67.92
2018-09-25T12:49:54.158Z,69.23
2018-09-25T12:53:03.560Z,69.14
2018-09-25T12:56:13.013Z,66.30
2018-09-25T12:59:22.247Z,69.16
2018-09-25T13:02:31.680Z,67.46
2018-09-25T13:05:41.444Z,68.82
2018-09-25T13:08:50.771Z,67.29
2018-09-25T13:12:00.103Z,67.82
2018-09-25T13:15:09.708Z,66.22
2018-09-25T13:18:19.075Z,67.37
2018-09-25T13:21:28.383Z,68.18
2018-09-25T13:24:37.714Z,68.27
2018-09-25T13:27:46.891Z,67.15
2018-09-25T13:30:56.335Z,67.61
2018-09-25T13:34:05.526Z,65.69
2018-09-25T13:37:14.755Z,66.29
2018-09-25T13:40:24.181Z,67.45
2018-09-25T13:43:33.522Z,66.17
2018-09-25T13:46:42.826Z,64.75
2018-09-25T13:49:52.363Z,63.25
2018-09-25T13:53:01.564Z,63.59
2018-09-25T13:56:11.200Z,66.34
2018-09-25T13:59:20.705Z,64.25
2018-09-25T14:02:29.829Z,65.05
2018-09-25T14:05:39.179Z,65.12
2018-09-25T14:08:48.910Z,63.54
2018-09-25T14:11:58.260Z,64.21
2018-09-25T14:15:07.584Z,62.54
2018-09-25T14:18:17.241Z,63.79
2018-09-25T14:21:26.755Z,64.58
2018-09-25T14:24:36.129Z,62.87
2018-09-25T14:27:45.591Z,61.19
2018-09-25T14:30:55.091Z,63.71
2018-09-25T14:34:04.335Z,64.56
2018-09-25T14:37:13.778Z,64.97
2018-09-25T14:40:23.134Z,64.92
2018-09-25T14:43:32.310Z,65.62
2018-09-25T14:46:41.594Z,62.48
2018-09-25T14:49:50.930Z,62.29
2018-09-25T14:53:00.140Z,60.97
2018-09-25T14:56:09.763Z,62.83
2018-09-25T14:59:18.999Z,63.12
2018-09-25T15:02:28.475Z,62.55
2018-09-25T15:05:37.738Z,63.32
2018-09-25T15:08:46.954Z,64.15
2018-09-25T15:11:56.174Z,63.01
2018-09-25T15:15:05.378Z,62.77
2018-09-25T15:18:14.782Z,63.18
2018-09-25T15:21:24.131Z,62.50
2018-09-25T15:24:33.592Z,63.35
2018-09-25T15:27:42.854Z,62.75
2018-09-25T15:30:52.286Z,63.61
2018-09-25T15:34:01.493Z,63.71
2018-09-25T15:37:10.739Z,63.46
2018-09-25T15:40:19.970Z,62.66
2018-09-25T15:43:29.142Z,63.98
2018-09-25T15:46:38.298Z,64.82
2018-09-25T15:49:47.734Z,63.87
2018-09-25T15:52:56.971Z,63.96
2018-09-25T15:56:06.165Z,64.76
2018-09-25T15:59:15.730Z,65.19
2018-09-25T16:02:25.066Z,64.65
2018-09-25T16:05:34.442Z,64.86
2018-09-25T16:08:43.653Z,64.66
2018-09-25T16:11:53.240Z,65.04
2018-09-25T16:15:02.579Z,63.60
2018-09-25T16:18:12.161Z,63.75
2018-09-25T16:21:21.559Z,63.19
2018-09-25T16:24:30.825Z,62.37
2018-09-25T16:27:40.154Z,62.70
2018-09-25T16:30:49.418Z,64.22
2018-09-25T16:33:58.594Z,63.87
2018-09-25T16:37:08.106Z,64.19
2018-09-25T16:40:17.339Z,64.27
2018-09-25T16:43:26.542Z,65.27
2018-09-25T16:46:35.795Z,65.08
2018-09-25T16:49:45.109Z,65.30
2018-09-25T16:52:54.511Z,65.57
2018-09-25T16:56:04.027Z,65.99
2018-09-25T16:59:13.314Z,65.59
2018-09-25T17:02:22.690Z,66.53
2018-09-25T17:05:31.942Z,66.84
2018-09-25T17:08:49.168Z,67.02
2018-09-25T17:11:58.704Z,67.23
2018-09-25T17:15:08.031Z,68.09
2018-09-25T17:18:17.386Z,67.61
2018-09-25T17:21:26.575Z,68.91
2018-09-25T17:24:35.783Z,68.90
2018-09-25T17:27:45.114Z,69.77
2018-09-25T17:30:54.642Z,69.59
2018-09-25T17:34:03.898Z,70.03
2018-09-25T17:37:13.327Z,70.25
2018-09-25T17:40:22.659Z,71.10
2018-09-25T17:43:32.017Z,70.43
2018-09-25T17:46:41.423Z,71.42
2018-09-25T17:49:50.645Z,71.60
2018-09-25T17:52:59.835Z,71.55
2018-09-25T17:56:09.059Z,71.93
2018-09-25T17:59:18.400Z,72.13
2018-09-25T18:02:27.954Z,72.81
2018-09-25T18:05:37.146Z,73.07
2018-09-25T18:08:46.359Z,72.69
2018-09-25T18:11:55.491Z,73.26
2018-09-25T18:15:04.726Z,73.52
2018-09-25T18:18:13.965Z,74.38
2018-09-25T18:21:23.142Z,73.54
2018-09-25T18:24:32.275Z,73.79
2018-09-25T18:27:41.656Z,73.71
2018-09-25T18:30:51.203Z,74.28
2018-09-25T18:34:00.398Z,74.19
2018-09-25T18:37:09.686Z,74.13
2018-09-25T18:40:19.087Z,74.92
2018-09-25T18:43:28.445Z,74.32
2018-09-25T18:46:38.133Z,75.05
2018-09-25T18:49:47.391Z,75.38
2018-09-25T18:52:56.720Z,75.41
2018-09-25T18:56:06.139Z,75.21
2018-09-25T18:59:15.798Z,75.11
2018-09-25T19:02:24.999Z,75.03
2018-09-25T19:05:34.147Z,75.27
2018-09-25T19:08:43.914Z,75.00
2018-09-25T19:11:53.227Z,74.84
2018-09-25T19:15:02.553Z,74.77
2018-09-25T19:18:11.949Z,74.86
2018-09-25T19:21:21.196Z,75.58
2018-09-25T19:24:30.600Z,74.85
2018-09-25T19:27:39.791Z,75.80
2018-09-25T19:30:49.277Z,74.14
2018-09-25T19:33:59.167Z,74.86
2018-09-25T19:37:08.754Z,74.31
2018-09-25T19:40:17.990Z,75.24
2018-09-25T19:43:27.352Z,75.34
2018-09-25T19:46:36.716Z,75.01
2018-09-25T19:49:46.378Z,74.52
2018-09-25T19:52:55.611Z,75.34
2018-09-25T19:56:04.951Z,74.87
2018-09-25T19:59:14.367Z,74.68
2018-09-25T20:02:23.645Z,75.42
2018-09-25T20:05:32.984Z,75.50
2018-09-25T20:08:42.616Z,75.77
2018-09-25T20:11:52.307Z,75.96
2018-09-25T20:15:01.667Z,76.13
2018-09-25T20:18:11.151Z,75.84
2018-09-25T20:21:20.536Z,75.95
2018-09-25T20:24:29.832Z,76.20
2018-09-25T20:27:39.483Z,75.36
2018-09-25T20:30:49.134Z,75.99
2018-09-25T20:33:58.665Z,76.73
2018-09-25T20:37:08.088Z,76.40
2018-09-25T20:40:17.256Z,76.00
2018-09-25T20:43:26.608Z,75.46
2018-09-25T20:46:35.928Z,75.95
2018-09-25T20:49:45.437Z,76.69
2018-09-25T20:52:54.635Z,76.45
2018-09-25T20:56:03.947Z,76.73
2018-09-25T20:59:13.236Z,76.98
2018-09-25T21:02:22.402Z,76.63
2018-09-25T21:05:31.849Z,76.10
2018-09-25T21:08:41.207Z,77.61
2018-09-25T21:11:50.473Z,78.01
2018-09-25T21:14:59.780Z,76.85
2018-09-25T21:18:09.319Z,76.79
2018-09-25T21:21:18.722Z,77.02
2018-09-25T21:24:28.077Z,76.59
2018-09-25T21:27:37.463Z,76.62
2018-09-25T21:30:46.769Z,76.67
2018-09-25T21:33:55.943Z,77.78
2018-09-25T21:37:05.210Z,78.30
2018-09-25T21:40:15.061Z,76.96
2018-09-25T21:43:24.680Z,77.35
2018-09-25T21:46:34.108Z,78.37
2018-09-25T21:49:43.303Z,77.44
2018-09-25T21:52:52.519Z,76.84
2018-09-25T21:56:01.876Z,77.43
2018-09-25T21:59:11.398Z,78.36
2018-09-25T22:02:20.724Z,77.78
2018-09-25T22:05:30.175Z,78.14
2018-09-25T22:08:39.566Z,77.78
2018-09-25T22:11:48.876Z,78.69
2018-09-25T22:14:58.407Z,77.77
2018-09-25T22:18:07.730Z,77.87
2018-09-25T22:21:17.129Z,77.84
2018-09-25T22:24:26.412Z,78.26
2018-09-25T22:27:35.786Z,78.87
2018-09-25T22:30:45.152Z,78.03
2018-09-25T22:33:54.408Z,78.39
2018-09-25T22:37:03.718Z,79.01
2018-09-25T22:40:12.931Z,78.62
2018-09-25T22:43:22.240Z,78.85
2018-09-25T22:46:31.599Z,78.79
2018-09-25T22:49:40.924Z,78.89
2018-09-25T22:52:50.198Z,79.13
2018-09-25T22:55:59.530Z,78.83
2018-09-25T22:59:08.791Z,78.70
2018-09-25T23:02:18.178Z,79.50
2018-09-25T23:05:27.633Z,79.16
2018-09-25T23:08:36.878Z,79.08
2018-09-25T23:11:46.235Z,78.87
2018-09-25T23:14:55.504Z,79.27
2018-09-25T23:18:05.007Z,79.33
2018-09-25T23:21:14.414Z,79.34
2018-09-25T23:24:23.679Z,79.45
2018-09-25T23:27:33.031Z,79.51
2018-09-25T23:30:42.365Z,79.22
2018-09-25T23:33:51.698Z,78.70
2018-09-25T23:37:00.932Z,80.04
2018-09-25T23:41:09.934Z,79.28
2018-09-25T23:45:20.792Z,79.43
2018-09-25T23:48:30.874Z,78.51
2018-09-25T23:51:38.334Z,79.18
2018-09-25T23:54:47.783Z,80.04
2018-09-25T23:57:59.627Z,78.73
